Peach Orchard, Arkansas
Current Conditions -  °F | °C
As of 9:55 PM on Tuesday 25 Nov 2014 (Local Time) from K4M9 Reporting Station
Clear Clear  
Wind Chill: 32°   Ceiling: Unl
Heat Index: 32°   Visibility: 10mi
Dew Point: 28°   Wind: 0mph
Humidity: 87%   Direction: NA
Pressure: 30.19"   Gusts: NA
Location:  36.28°N, 90.66°W
Report Text: K4M9 260355Z AUTO 00000KT 10SM CLR 00/M02 A3019 RMK AO2
Loading
Personal Weather Stations






























Interactive Weather Map New forecast layout! Learn more

10-Day Weather Forecast

Advertisements
Track Severe Weather on mobile